Time;durP1;ratioP1;P1;durP2;ratioP2;P2;SDS_P1;SDS_P2;PMS_P1;PMS_P2;Temp;Humidity;BMP_temperature;BMP_pressure;BME280_temperature;BME280_humidity;BME280_pressure;Samples;Min_cycle;Max_cycle;Signal;HPM_P1;HPM_P2
2022/09/23 00:00:32;;;;;;;;;4.67;4.33;;;;;14.71;72.64;100483.91;5078680;27;46254;-72
2022/09/23 00:02:58;;;;;;;;;6.25;6.25;;;;;14.69;72.61;100482.13;5078569;28;45485;-72
2022/09/23 00:05:25;;;;;;;;;5.00;5.00;;;;;14.69;72.44;100474.25;5078724;28;45430;-72
2022/09/23 00:07:51;;;;;;;;;7.00;6.50;;;;;14.57;73.00;100455.69;5078828;27;45349;-69
2022/09/23 00:10:17;;;;;;;;;6.00;6.00;;;;;14.64;74.08;100468.03;5078763;28;46114;-68
2022/09/23 00:12:42;;;;;;;;;5.50;5.25;;;;;14.58;73.44;100453.06;5078721;28;45455;-68
2022/09/23 00:15:10;;;;;;;;;6.00;6.00;;;;;14.62;73.02;100468.03;5078765;27;45374;-69
2022/09/23 00:17:35;;;;;;;;;5.50;5.50;;;;;14.49;73.29;100459.06;5078826;27;45464;-68
2022/09/23 00:20:01;;;;;;;;;5.75;5.25;;;;;14.54;72.89;100469.63;5078316;28;46159;-69
2022/09/23 00:22:27;;;;;;;;;8.00;7.00;;;;;14.47;73.06;100455.53;5077301;27;45555;-69
2022/09/23 00:24:52;;;;;;;;;5.50;5.50;;;;;14.43;73.27;100471.25;5078638;28;45377;-69
2022/09/23 00:27:20;;;;;;;;;6.75;6.75;;;;;14.37;73.57;100468.56;5079047;28;45451;-68
2022/09/23 00:29:46;;;;;;;;;5.25;4.75;;;;;14.25;74.14;100450.88;5078510;28;45481;-69
2022/09/23 00:32:12;;;;;;;;;6.50;5.75;;;;;14.36;74.55;100467.66;5078165;28;45425;-69
2022/09/23 00:34:37;;;;;;;;;6.50;5.50;;;;;14.33;74.83;100450.09;5078332;28;45487;-69
2022/09/23 00:37:03;;;;;;;;;6.25;6.25;;;;;14.44;74.44;100459.88;5078652;27;45465;-72
2022/09/23 00:39:29;;;;;;;;;7.50;6.25;;;;;14.35;75.44;100437.00;5078153;28;45441;-71
2022/09/23 00:41:54;;;;;;;;;6.75;5.50;;;;;14.33;74.35;100443.97;5078127;27;45320;-71
2022/09/23 00:44:43;;;;;;;;;5.00;5.00;;;;;14.38;73.62;100458.03;5078491;28;45321;-69
2022/09/23 00:47:29;;;;;;;;;3.00;3.00;;;;;14.36;73.44;100445.75;5078370;28;45293;-71
2022/09/23 00:50:08;;;;;;;;;5.00;5.00;;;;;14.37;73.50;100450.16;5077553;28;46204;-69
2022/09/23 00:52:35;;;;;;;;;5.75;5.00;;;;;14.18;73.61;100414.88;5077943;28;45591;-72
2022/09/23 00:55:09;;;;;;;;;5.50;5.25;;;;;14.22;73.59;100422.78;5078058;28;45372;-72
2022/09/23 00:57:39;;;;;;;;;5.00;5.00;;;;;14.22;73.74;100420.16;5078346;28;45479;-72
2022/09/23 01:00:06;;;;;;;;;5.67;5.00;;;;;14.31;73.91;100429.94;5077663;28;46056;-71
2022/09/23 01:02:32;;;;;;;;;6.67;5.67;;;;;14.32;73.47;100448.34;5077694;28;45476;-71
2022/09/23 01:05:00;;;;;;;;;7.00;6.00;;;;;14.36;73.43;100453.63;5077818;28;45262;-71
2022/09/23 01:07:26;;;;;;;;;6.25;5.00;;;;;14.25;72.87;100443.00;5093884;27;45400;-70
2022/09/23 01:09:52;;;;;;;;;5.50;5.00;;;;;14.34;73.10;100456.25;5077624;27;45391;-71
2022/09/23 01:12:32;;;;;;;;;5.00;5.00;;;;;14.37;73.11;100448.41;5078061;27;45375;-70
2022/09/23 01:15:09;;;;;;;;;4.00;4.00;;;;;14.36;72.89;100441.38;5077786;28;45320;-71
2022/09/23 01:17:52;;;;;;;;;6.50;5.00;;;;;14.36;72.86;100438.75;5077765;27;45452;-72
2022/09/23 01:20:32;;;;;;;;;5.00;4.00;;;;;14.35;73.15;100450.13;5077631;27;45493;-72
2022/09/23 01:23:35;;;;;;;;;6.50;5.75;;;;;14.33;73.50;100438.72;5076175;28;45239;-71
2022/09/23 01:26:10;;;;;;;;;7.00;6.00;;;;;14.27;74.45;100451.78;5093365;27;45425;-71
2022/09/23 01:28:56;;;;;;;;;7.00;6.25;;;;;14.21;73.74;100442.06;5077720;28;45345;-72
2022/09/23 01:31:44;;;;;;;;;7.00;6.00;;;;;14.16;73.85;100433.22;5077049;28;45406;-71
2022/09/23 01:34:23;;;;;;;;;5.00;5.00;;;;;14.18;73.75;100430.63;5077013;27;45410;-72
2022/09/23 01:37:13;;;;;;;;;4.75;4.75;;;;;14.15;73.49;100425.34;5077721;28;45396;-69
2022/09/23 01:39:51;;;;;;;;;6.75;6.25;;;;;14.21;74.29;100434.19;5077532;28;45401;-68
2022/09/23 01:42:28;;;;;;;;;5.50;5.00;;;;;14.03;73.91;100402.44;5077110;27;45491;-68
2022/09/23 01:45:04;;;;;;;;;7.00;5.00;;;;;14.23;74.11;100426.34;5077143;28;45510;-68
2022/09/23 01:47:35;;;;;;;;;5.00;5.00;;;;;14.13;74.25;100406.94;5075983;28;45244;-68
2022/09/23 01:53:17;;;;;;;;;4.33;3.00;;;;;14.23;73.86;100421.06;5077171;28;45499;-72
2022/09/23 01:55:50;;;;;;;;;3.00;3.00;;;;;14.24;73.49;100423.69;5077221;28;45500;-72
2022/09/23 01:58:42;;;;;;;;;6.25;6.00;;;;;14.19;73.44;100414.03;5077123;28;45494;-71
2022/09/23 02:01:14;;;;;;;;;6.25;6.00;;;;;14.17;73.39;100413.13;5076778;28;45401;-71
2022/09/23 02:03:46;;;;;;;;;5.50;5.50;;;;;14.05;73.65;100391.06;5076776;27;46169;-71
2022/09/23 02:06:26;;;;;;;;;6.00;5.00;;;;;13.93;73.37;100375.16;5076726;28;46110;-72
2022/09/23 02:08:59;;;;;;;;;6.00;5.50;;;;;14.13;73.46;100410.44;5077526;28;45433;-68
2022/09/23 02:11:25;;;;;;;;;5.00;4.50;;;;;14.06;73.38;100398.06;5077205;28;45416;-68
2022/09/23 02:13:59;;;;;;;;;5.50;5.25;;;;;14.16;73.51;100404.34;5077124;28;45448;-68
2022/09/23 02:16:33;;;;;;;;;6.00;5.00;;;;;13.96;73.11;100369.06;5077190;28;45238;-68
2022/09/23 02:19:12;;;;;;;;;6.00;5.25;;;;;14.15;73.60;100391.19;5076967;28;45471;-68
2022/09/23 02:21:41;;;;;;;;;5.25;5.25;;;;;14.15;73.71;100401.72;5077030;28;45332;-68
2022/09/23 02:24:14;;;;;;;;;6.50;6.00;;;;;14.12;74.24;100392.94;5076604;28;45495;-71
2022/09/23 02:26:51;;;;;;;;;6.25;5.50;;;;;13.90;74.69;100364.59;5076513;28;45250;-71
2022/09/23 02:29:19;;;;;;;;;5.50;5.50;;;;;14.08;74.25;100385.84;5076751;27;45464;-71
2022/09/23 02:31:56;;;;;;;;;6.75;6.75;;;;;14.06;74.70;100387.56;5076779;28;45461;-71
2022/09/23 02:34:58;;;;;;;;;5.00;5.00;;;;;14.05;74.11;100379.69;5076801;28;46280;-69
2022/09/23 02:37:47;;;;;;;;;4.75;4.25;;;;;13.94;73.64;100358.50;5076825;27;45445;-68
2022/09/23 02:40:24;;;;;;;;;5.50;5.00;;;;;13.94;73.47;100353.25;5065408;28;45373;-72
2022/09/23 02:42:53;;;;;;;;;6.00;5.75;;;;;14.02;74.30;100359.50;5076797;27;45278;-72
2022/09/23 02:45:18;;;;;;;;;5.00;4.00;;;;;13.97;74.42;100357.69;5076501;27;45517;-72
2022/09/23 02:47:51;;;;;;;;;5.50;5.00;;;;;13.85;74.62;100342.66;5079978;28;45333;-72
2022/09/23 02:50:18;;;;;;;;;5.00;5.00;;;;;13.99;74.46;100362.09;5080282;28;45503;-72
2022/09/23 02:52:45;;;;;;;;;5.75;5.75;;;;;13.97;74.43;100363.81;5080172;28;45389;-71
2022/09/23 02:55:16;;;;;;;;;5.25;5.00;;;;;13.73;74.81;100348.63;5079692;28;46236;-69
2022/09/23 02:57:42;;;;;;;;;6.25;5.75;;;;;13.61;74.80;100330.06;5079884;28;45593;-71
2022/09/23 03:00:08;;;;;;;;;4.75;4.75;;;;;13.66;74.95;100350.25;5079960;28;45508;-71
2022/09/23 03:03:25;;;;;;;;;6.00;5.75;;;;;13.75;75.41;100364.38;5080079;28;45380;-71
2022/09/23 03:05:58;;;;;;;;;7.75;7.25;;;;;13.76;76.25;100355.66;5056833;28;45345;-71
2022/09/23 03:08:49;;;;;;;;;6.50;6.00;;;;;13.67;76.50;100344.16;5078710;28;45378;-68
2022/09/23 03:11:16;;;;;;;;;5.50;5.00;;;;;13.78;76.28;100346.94;5079766;28;45398;-68
2022/09/23 03:14:16;;;;;;;;;7.75;5.75;;;;;13.86;75.80;100347.91;5079754;28;45420;-68
2022/09/23 03:16:46;;;;;;;;;6.50;5.25;;;;;13.94;75.46;100342.75;5079412;27;45444;-68
2022/09/23 03:19:25;;;;;;;;;7.25;6.75;;;;;13.88;75.00;100319.94;5079378;28;45353;-68
2022/09/23 03:22:11;;;;;;;;;6.50;6.00;;;;;14.01;74.23;100331.47;5079613;27;45294;-68
2022/09/23 03:24:43;;;;;;;;;6.75;6.00;;;;;13.90;74.80;100314.69;5079837;27;45509;-71
2022/09/23 03:27:17;;;;;;;;;6.00;5.25;;;;;13.98;75.23;100331.44;5079257;28;46101;-71
2022/09/23 03:29:46;;;;;;;;;5.00;5.00;;;;;13.98;75.40;100330.56;5077751;28;45516;-71
2022/09/23 03:32:15;;;;;;;;;6.00;5.00;;;;;14.00;74.94;100329.69;5079286;28;45457;-71
2022/09/23 03:34:42;;;;;;;;;5.00;5.00;;;;;14.02;74.87;100327.09;5079380;27;45550;-72
2022/09/23 03:37:30;;;;;;;;;6.00;6.00;;;;;13.97;74.29;100329.69;5079088;27;45397;-69
2022/09/23 03:40:13;;;;;;;;;5.00;5.00;;;;;13.97;74.27;100326.19;5079325;28;45251;-71
2022/09/23 03:42:40;;;;;;;;;8.00;6.00;;;;;14.02;74.10;100329.72;5079196;27;45591;-68
2022/09/23 03:45:12;;;;;;;;;5.00;5.00;;;;;13.94;73.78;100319.13;5079290;27;45567;-71
2022/09/23 03:47:38;;;;;;;;;6.00;6.00;;;;;13.91;73.78;100314.72;5078716;27;45505;-70
2022/09/23 03:50:04;;;;;;;;;4.50;4.00;;;;;13.99;74.51;100327.09;5078740;28;45460;-71
2022/09/23 03:52:30;;;;;;;;;6.00;6.00;;;;;13.95;74.19;100330.50;5079212;28;45359;-71
2022/09/23 03:54:55;;;;;;;;;6.00;6.00;;;;;13.82;74.29;100303.22;5079538;28;45271;-69
2022/09/23 03:57:22;;;;;;;;;5.00;5.00;;;;;13.92;74.04;100320.84;5094273;27;45639;-71
2022/09/23 03:59:49;;;;;;;;;5.67;5.00;;;;;13.77;74.63;100310.13;5078940;28;45511;-72
2022/09/23 04:02:16;;;;;;;;;6.25;5.75;;;;;13.79;74.65;100308.44;5078655;28;45460;-72
2022/09/23 04:04:42;;;;;;;;;6.00;5.50;;;;;13.64;74.27;100285.50;5078948;28;45524;-70
2022/09/23 04:07:09;;;;;;;;;5.00;5.00;;;;;13.71;74.08;100296.09;5078505;28;45563;-72
2022/09/23 04:09:36;;;;;;;;;5.25;5.25;;;;;13.88;74.36;100312.03;5078721;28;45251;-71
2022/09/23 04:12:02;;;;;;;;;6.25;4.50;;;;;13.84;74.52;100301.50;5078869;28;45308;-69
2022/09/23 04:14:28;;;;;;;;;4.00;3.00;;;;;13.94;75.35;100308.63;5079280;28;45313;-71
2022/09/23 04:16:54;;;;;;;;;5.00;4.75;;;;;13.85;75.31;100290.16;5078468;28;46120;-69
2022/09/23 04:19:20;;;;;;;;;5.00;5.00;;;;;13.87;74.94;100302.41;5078431;28;45525;-71
2022/09/23 04:21:46;;;;;;;;;4.00;4.00;;;;;13.93;74.18;100302.50;5078404;28;45503;-71
2022/09/23 04:24:12;;;;;;;;;4.75;4.75;;;;;13.85;73.74;100308.53;5078708;28;45235;-71
2022/09/23 04:26:39;;;;;;;;;5.75;5.00;;;;;13.77;74.16;100326.81;5078155;27;46507;-71
2022/09/23 04:29:04;;;;;;;;;4.00;4.00;;;;;13.77;73.74;100326.81;5078407;28;45268;-69
2022/09/23 04:31:31;;;;;;;;;4.50;4.50;;;;;13.65;74.71;100303.88;5078775;27;45283;-69
2022/09/23 04:33:57;;;;;;;;;7.00;7.00;;;;;13.68;75.04;100317.03;5078482;28;45219;-69
2022/09/23 04:36:22;;;;;;;;;4.75;4.75;;;;;13.69;74.57;100324.06;5078044;28;46185;-69
2022/09/23 04:38:49;;;;;;;;;6.75;5.00;;;;;13.77;74.78;100321.56;5078145;28;45537;-70
2022/09/23 04:41:15;;;;;;;;;4.25;4.25;;;;;13.76;74.80;100311.03;5076975;28;45560;-69
2022/09/23 04:43:41;;;;;;;;;6.25;6.00;;;;;13.94;74.97;100334.88;5078430;27;45453;-69
2022/09/23 04:46:09;;;;;;;;;7.00;6.00;;;;;13.90;74.64;100328.69;5078011;28;45319;-70
2022/09/23 04:48:36;;;;;;;;;5.75;4.75;;;;;13.98;74.75;100341.94;5078043;28;45316;-69
2022/09/23 04:51:17;;;;;;;;;5.00;5.00;;;;;14.01;75.19;100347.25;5077284;28;45414;-70
2022/09/23 04:53:45;;;;;;;;;5.00;4.00;;;;;14.06;75.14;100347.28;5078363;28;45511;-71
2022/09/23 04:56:16;;;;;;;;;5.00;5.00;;;;;14.02;75.02;100332.34;5076472;28;45470;-71
2022/09/23 04:58:43;;;;;;;;;4.25;3.75;;;;;14.02;74.32;100327.97;5077777;28;45492;-69
2022/09/23 05:01:16;;;;;;;;;5.75;5.50;;;;;14.15;74.24;100330.78;5077675;28;45445;-69
2022/09/23 05:03:42;;;;;;;;;6.25;6.25;;;;;14.13;74.63;100329.00;5078114;28;45326;-70
2022/09/23 05:06:09;;;;;;;;;6.00;5.50;;;;;14.06;74.36;100319.28;5077814;27;45485;-71
2022/09/23 05:08:35;;;;;;;;;6.00;6.00;;;;;14.02;75.37;100312.22;5075690;28;45257;-70
2022/09/23 05:11:06;;;;;;;;;5.00;5.00;;;;;14.03;74.85;100300.00;5076697;28;45384;-69
2022/09/23 05:13:32;;;;;;;;;6.00;5.00;;;;;14.02;74.55;100304.34;5078384;28;45508;-71
2022/09/23 05:16:10;;;;;;;;;6.67;6.67;;;;;14.03;75.00;100319.25;5076208;28;45750;-70
2022/09/23 05:18:39;;;;;;;;;5.50;5.50;;;;;13.95;74.61;100314.75;5077592;28;45309;-68
2022/09/23 05:21:05;;;;;;;;;5.50;5.00;;;;;14.07;74.61;100333.31;5078035;27;45501;-69
2022/09/23 05:23:31;;;;;;;;;4.00;4.00;;;;;14.03;74.87;100340.25;5078167;27;45431;-69
2022/09/23 05:26:09;;;;;;;;;6.00;5.50;;;;;13.85;75.08;100325.16;5077468;28;46493;-69
2022/09/23 05:28:38;;;;;;;;;6.00;5.50;;;;;13.76;74.81;100311.03;5077868;28;45502;-69
2022/09/23 05:31:11;;;;;;;;;4.00;3.67;;;;;13.83;74.56;100315.50;5077868;27;45299;-70
2022/09/23 05:33:38;;;;;;;;;4.67;4.00;;;;;13.77;74.64;100318.03;5076168;28;45424;-69
2022/09/23 05:36:03;;;;;;;;;4.75;4.75;;;;;13.69;75.70;100302.19;5077372;28;45465;-70
2022/09/23 05:38:30;;;;;;;;;5.50;5.50;;;;;13.78;75.74;100314.56;5077123;27;45393;-69
2022/09/23 05:41:00;;;;;;;;;6.00;6.00;;;;;13.76;75.15;100303.16;5076067;28;45519;-70
2022/09/23 05:43:26;;;;;;;;;6.00;6.00;;;;;13.87;74.97;100328.69;5077634;28;45217;-71
2022/09/23 05:46:10;;;;;;;;;5.75;5.00;;;;;13.89;75.26;100328.72;5075943;28;47089;-68
2022/09/23 05:48:36;;;;;;;;;8.00;6.00;;;;;13.76;75.38;100326.78;5076129;28;45504;-68
2022/09/23 05:51:07;;;;;;;;;6.75;6.00;;;;;13.83;75.14;100345.25;5077466;28;45552;-68
2022/09/23 05:53:33;;;;;;;;;5.00;5.00;;;;;13.85;75.18;100350.53;5078042;28;45305;-68
2022/09/23 05:55:59;;;;;;;;;7.00;6.00;;;;;13.75;75.31;100333.78;5077119;27;45617;-68
2022/09/23 05:58:26;;;;;;;;;5.25;5.25;;;;;13.73;75.18;100315.38;5077137;28;45705;-68
2022/09/23 06:00:55;;;;;;;;;7.25;7.25;;;;;13.93;75.22;100339.25;5077293;28;45392;-68
2022/09/23 06:03:22;;;;;;;;;7.00;6.00;;;;;13.99;74.74;100341.09;5077221;28;45519;-68
2022/09/23 06:05:51;;;;;;;;;5.00;4.50;;;;;14.05;75.01;100343.78;5076787;28;46441;-68
2022/09/23 06:08:17;;;;;;;;;7.33;6.00;;;;;14.01;74.97;100327.97;5077027;28;45211;-68
2022/09/23 06:10:45;;;;;;;;;7.25;6.00;;;;;14.20;74.42;100350.97;5077001;28;45475;-68
2022/09/23 06:13:11;;;;;;;;;6.00;5.00;;;;;14.30;74.03;100344.06;5077119;27;45448;-68
2022/09/23 06:15:38;;;;;;;;;6.25;6.00;;;;;14.27;73.70;100339.66;5076876;28;46032;-72
2022/09/23 06:18:05;;;;;;;;;5.00;5.00;;;;;14.35;73.52;100345.03;5076677;28;45483;-71
2022/09/23 06:20:31;;;;;;;;;6.75;6.00;;;;;14.37;73.53;100335.41;5076827;28;45414;-70
2022/09/23 06:23:10;;;;;;;;;6.00;6.00;;;;;14.43;73.27;100342.47;5079310;27;45642;-72
2022/09/23 06:25:39;;;;;;;;;6.00;6.00;;;;;14.61;73.19;100361.09;5080656;27;46511;-70
2022/09/23 06:28:10;;;;;;;;;7.75;7.75;;;;;14.66;72.73;100348.00;5079161;28;45251;-71
2022/09/23 06:30:36;;;;;;;;;6.50;6.00;;;;;14.78;72.59;100361.28;5080476;28;45424;-72
2022/09/23 06:33:01;;;;;;;;;8.25;7.75;;;;;14.79;72.41;100347.25;5080339;28;45347;-71
2022/09/23 06:35:27;;;;;;;;;6.00;6.00;;;;;14.80;72.23;100324.47;5079961;28;46178;-71
2022/09/23 06:37:53;;;;;;;;;6.25;6.25;;;;;15.09;71.83;100351.91;5078792;28;45336;-69
2022/09/23 06:40:21;;;;;;;;;8.00;7.50;;;;;15.08;71.36;100331.75;5080199;28;45285;-69
2022/09/23 06:42:47;;;;;;;;;6.75;5.75;;;;;15.18;71.49;100351.13;5080151;28;45468;-69
2022/09/23 06:45:14;;;;;;;;;8.00;7.25;;;;;15.25;71.68;100338.88;5079596;27;45449;-69
2022/09/23 06:47:43;;;;;;;;;8.00;8.00;;;;;15.37;71.70;100338.09;5080152;28;45486;-68
2022/09/23 06:50:13;;;;;;;;;9.50;8.00;;;;;15.56;71.10;100344.34;5080278;28;45643;-69
2022/09/23 06:52:38;;;;;;;;;7.25;7.00;;;;;15.72;70.93;100333.06;5080344;27;45467;-70
2022/09/23 06:55:04;;;;;;;;;7.00;6.67;;;;;15.88;69.76;100340.19;5079589;28;46326;-71
2022/09/23 06:57:32;;;;;;;;;7.67;7.00;;;;;15.95;69.81;100311.25;5079731;27;45440;-69
2022/09/23 06:59:58;;;;;;;;;6.00;6.00;;;;;16.13;69.61;100310.44;5079758;28;45566;-72
2022/09/23 07:02:26;;;;;;;;;8.00;7.00;;;;;16.29;68.77;100313.13;5080010;28;45264;-72
2022/09/23 07:04:55;;;;;;;;;7.75;7.75;;;;;16.49;68.54;100326.38;5079580;28;46391;-69
2022/09/23 07:07:21;;;;;;;;;10.00;9.67;;;;;16.53;68.53;100331.63;5079533;28;45309;-69
2022/09/23 07:09:47;;;;;;;;;9.67;9.67;;;;;16.38;68.59;100314.03;5079340;28;45512;-69
2022/09/23 07:12:12;;;;;;;;;8.33;8.33;;;;;16.54;69.01;100336.03;5079667;28;45460;-69
2022/09/23 07:14:38;;;;;;;;;7.67;7.67;;;;;16.48;68.90;100315.81;5079631;27;45412;-69
2022/09/23 07:17:04;;;;;;;;;10.00;9.33;;;;;16.58;68.66;100328.13;5079396;28;46031;-71
2022/09/23 07:19:29;;;;;;;;;9.00;9.00;;;;;16.49;69.03;100326.38;5079445;28;45326;-71
2022/09/23 07:21:55;;;;;;;;;8.00;8.00;;;;;16.54;68.96;100328.13;5079693;28;45493;-69
2022/09/23 07:24:21;;;;;;;;;7.00;7.00;;;;;16.54;69.20;100326.38;5078054;28;46724;-72
2022/09/23 07:26:47;;;;;;;;;9.00;8.67;;;;;16.65;69.17;100347.47;5079288;28;45535;-69
2022/09/23 07:29:14;;;;;;;;;8.00;8.00;;;;;16.71;69.08;100352.75;5079541;28;45363;-69
2022/09/23 07:31:39;;;;;;;;;7.67;7.00;;;;;16.66;68.67;100338.69;5078938;28;45356;-69
2022/09/23 07:34:07;;;;;;;;;10.00;10.00;;;;;16.63;69.61;100351.84;5079037;28;46023;-68
2022/09/23 07:36:35;;;;;;;;;8.00;7.00;;;;;16.63;69.63;100349.22;5079313;28;45523;-69
2022/09/23 07:39:02;;;;;;;;;6.67;6.67;;;;;16.67;69.42;100346.63;5079176;28;45246;-69
2022/09/23 07:41:29;;;;;;;;;8.00;8.00;;;;;16.83;68.64;100358.09;5078955;28;45355;-69
2022/09/23 07:43:57;;;;;;;;;7.33;7.33;;;;;16.80;68.26;100331.69;5078352;28;45489;-72
2022/09/23 07:46:26;;;;;;;;;8.00;7.33;;;;;16.84;67.58;100330.81;5078555;27;45481;-69
2022/09/23 07:48:52;;;;;;;;;7.00;7.00;;;;;17.12;67.25;100359.88;5077406;28;45443;-72
2022/09/23 07:51:31;;;;;;;;;11.00;9.00;;;;;17.05;67.36;100339.63;5078956;28;45353;-68
2022/09/23 07:53:58;;;;;;;;;9.00;8.00;;;;;17.24;67.53;100354.59;5078054;27;45633;-69
2022/09/23 07:56:25;;;;;;;;;6.33;6.33;;;;;17.36;67.39;100353.69;5078325;28;45490;-69
2022/09/23 07:59:02;;;;;;;;;7.33;7.33;;;;;17.37;67.88;100366.03;5078299;28;45318;-69
2022/09/23 08:01:36;;;;;;;;;7.67;7.67;;;;;17.20;67.79;100331.72;5078503;28;45535;-71
2022/09/23 08:04:11;;;;;;;;;8.00;7.33;;;;;17.34;67.84;100362.50;5078321;27;45438;-72
2022/09/23 08:06:48;;;;;;;;;7.00;6.00;;;;;17.46;67.62;100375.69;5078447;27;45368;-71
2022/09/23 08:09:15;;;;;;;;;11.00;10.00;;;;;17.59;67.56;100379.22;5078351;28;45275;-69
2022/09/23 08:11:41;;;;;;;;;9.00;9.00;;;;;17.63;67.73;100379.22;5079039;28;45357;-72
2022/09/23 08:14:08;;;;;;;;;9.00;9.00;;;;;17.64;67.64;100380.94;5078069;27;45407;-72
2022/09/23 08:16:35;;;;;;;;;8.67;8.67;;;;;17.67;67.96;100386.25;5077845;27;45469;-69
2022/09/23 08:19:01;;;;;;;;;8.00;7.67;;;;;17.67;67.65;100378.31;5077708;27;45193;-69
2022/09/23 08:21:28;;;;;;;;;8.00;7.67;;;;;17.66;67.39;100357.19;5078378;27;45440;-69
2022/09/23 08:23:54;;;;;;;;;8.00;8.00;;;;;17.94;66.96;100394.16;5078275;27;45461;-69
2022/09/23 08:26:19;;;;;;;;;9.67;9.00;;;;;17.95;66.56;100373.00;5078161;28;45378;-69
2022/09/23 08:28:46;;;;;;;;;7.67;7.00;;;;;18.12;66.03;100382.63;5078585;28;45440;-70
2022/09/23 08:31:12;;;;;;;;;7.33;6.00;;;;;18.29;66.04;100380.81;5078419;28;45325;-69
2022/09/23 08:33:39;;;;;;;;;9.00;7.00;;;;;18.74;65.30;100394.69;5077593;28;45433;-69
2022/09/23 08:36:05;;;;;;;;;8.67;7.00;;;;;18.98;64.73;100380.44;5077837;28;45471;-69
2022/09/23 08:38:30;;;;;;;;;6.33;6.00;;;;;19.46;63.45;100391.53;5078048;28;45491;-68
2022/09/23 08:41:14;;;;;;;;;7.33;7.00;;;;;20.44;60.82;100389.59;5077713;28;45343;-69
2022/09/23 08:43:47;;;;;;;;;7.67;6.00;;;;;20.90;59.44;100376.63;5076226;28;46684;-69
2022/09/23 08:46:23;;;;;;;;;10.67;9.33;;;;;21.62;57.45;100378.97;5077799;27;45265;-69
2022/09/23 08:48:49;;;;;;;;;7.00;6.67;;;;;22.60;54.78;100381.47;5075973;28;45441;-70
2022/09/23 08:51:34;;;;;;;;;12.00;7.00;;;;;23.43;53.70;100362.63;5077862;28;45384;-70
2022/09/23 08:54:00;;;;;;;;;7.00;6.00;;;;;23.92;52.46;100358.69;5077024;28;45986;-71
2022/09/23 08:56:29;;;;;;;;;5.67;5.67;;;;;24.01;51.53;100365.53;5075795;28;45575;-71
2022/09/23 08:59:01;;;;;;;;;8.00;7.33;;;;;23.50;53.33;100374.91;5077370;28;45468;-70
2022/09/23 09:01:36;;;;;;;;;6.67;5.00;;;;;23.36;53.19;100390.38;5077655;28;45502;-70
2022/09/23 09:04:34;;;;;;;;;7.00;6.33;;;;;23.73;53.31;100384.06;5077165;28;46172;-69
2022/09/23 09:07:05;;;;;;;;;6.67;6.00;;;;;24.42;51.63;100396.38;5075138;28;45521;-70
2022/09/23 09:09:40;;;;;;;;;7.67;6.00;;;;;24.87;50.13;100388.81;5077156;28;45479;-70
2022/09/23 09:12:21;;;;;;;;;7.00;6.33;;;;;25.29;49.46;100388.41;5077496;28;45504;-70
2022/09/23 09:14:58;;;;;;;;;6.33;6.00;;;;;25.74;48.42;100396.59;5077008;28;45335;-70
2022/09/23 09:17:47;;;;;;;;;7.67;7.00;;;;;25.87;47.83;100390.84;5075722;28;45546;-70
2022/09/23 09:20:38;;;;;;;;;7.33;6.00;;;;;26.31;47.09;100401.75;5076975;28;45228;-70
2022/09/23 09:23:10;;;;;;;;;9.33;8.00;;;;;26.55;46.74;100397.25;5077583;27;45602;-70
2022/09/23 09:25:39;;;;;;;;;8.00;7.00;;;;;26.66;45.98;100397.75;5077089;28;46165;-70
2022/09/23 09:28:23;;;;;;;;;8.00;7.00;;;;;26.67;46.14;100390.59;5077125;27;45285;-70
2022/09/23 09:30:55;;;;;;;;;7.00;6.00;;;;;26.65;46.50;100361.16;5077333;28;45312;-70
2022/09/23 09:33:34;;;;;;;;;6.33;5.00;;;;;26.73;45.71;100377.81;5077587;27;45282;-70
2022/09/23 09:36:18;;;;;;;;;5.00;5.00;;;;;26.75;44.52;100378.63;5076952;28;46622;-70
2022/09/23 09:38:44;;;;;;;;;5.67;5.67;;;;;26.67;44.89;100370.03;5076724;28;45342;-70
2022/09/23 09:41:15;;;;;;;;;5.00;5.00;;;;;26.90;43.53;100370.91;5076676;28;45315;-71
2022/09/23 09:43:47;;;;;;;;;4.67;4.67;;;;;27.18;42.72;100370.66;5077054;28;45296;-70
2022/09/23 09:46:24;;;;;;;;;4.33;4.00;;;;;27.75;42.26;100381.66;5076643;28;45384;-70
2022/09/23 09:49:21;;;;;;;;;4.00;4.00;;;;;28.06;42.12;100381.19;5077138;28;45454;-70
2022/09/23 09:52:10;;;;;;;;;4.00;4.00;;;;;27.81;41.09;100389.44;5077079;28;45642;-70
2022/09/23 09:54:35;;;;;;;;;4.00;4.00;;;;;27.58;41.73;100380.59;5077063;28;45479;-69
2022/09/23 09:57:04;;;;;;;;;3.00;3.00;;;;;26.88;40.73;100278.97;5079825;28;45554;-69
2022/09/23 09:59:31;;;;;;;;;5.00;3.00;;;;;26.84;40.59;100322.91;5080095;28;45430;-69
2022/09/23 10:02:24;;;;;;;;;3.00;3.00;;;;;26.79;40.97;100390.09;5080548;27;45782;-69
2022/09/23 10:04:59;;;;;;;;;3.00;3.00;;;;;26.30;42.27;100386.59;5080710;28;45447;-69
2022/09/23 10:07:28;;;;;;;;;2.67;2.67;;;;;26.03;43.64;100416.16;5079634;27;46177;-69
2022/09/23 10:09:54;;;;;;;;;3.00;3.00;;;;;25.64;44.46;100413.91;5079784;27;45483;-71
2022/09/23 10:12:22;;;;;;;;;4.33;4.00;;;;;25.40;44.81;100408.47;5079925;28;45537;-71
2022/09/23 10:14:50;;;;;;;;;4.33;4.00;;;;;25.19;45.64;100404.69;5080545;28;45483;-69
2022/09/23 10:17:37;;;;;;;;;3.33;3.00;;;;;25.18;46.37;100424.31;5079578;28;45556;-70
2022/09/23 10:20:07;;;;;;;;;5.00;5.00;;;;;25.22;46.26;100424.25;5079249;28;45629;-69
2022/09/23 10:22:39;;;;;;;;;4.00;3.67;;;;;25.40;46.30;100405.81;5079740;27;45361;-69
2022/09/23 10:25:15;;;;;;;;;6.00;4.00;;;;;25.97;44.55;100429.75;5080123;28;45313;-69
2022/09/23 10:27:41;;;;;;;;;4.00;4.00;;;;;26.24;43.78;100403.75;5079810;27;45456;-69
2022/09/23 10:30:24;;;;;;;;;3.00;3.00;;;;;26.45;43.12;100404.78;5079584;27;45428;-69
2022/09/23 10:32:53;;;;;;;;;4.67;3.00;;;;;27.11;42.45;100418.28;5078772;28;45432;-71
2022/09/23 10:35:25;;;;;;;;;3.33;3.33;;;;;27.34;41.42;100413.84;5079845;28;45290;-71
2022/09/23 10:37:59;;;;;;;;;2.00;2.00;;;;;27.57;39.91;100405.69;5080003;27;46644;-69
2022/09/23 10:49:29;;;;;;;;;2.00;2.00;;;;;27.47;38.12;100407.00;5055500;27;45553;-70
2022/09/23 10:52:17;;;;;;;;;2.00;2.00;;;;;27.36;38.71;100404.78;5079549;28;45330;-70
2022/09/23 10:55:18;;;;;;;;;2.33;2.00;;;;;27.12;39.78;100387.88;5079393;28;45373;-70
2022/09/23 10:57:44;;;;;;;;;2.00;2.00;;;;;27.08;39.85;100402.34;5079632;28;45456;-70
2022/09/23 11:00:26;;;;;;;;;3.00;2.00;;;;;26.92;40.23;100403.91;5077510;28;45357;-70
2022/09/23 11:03:23;;;;;;;;;3.00;1.67;;;;;26.75;39.82;100408.09;5079452;28;45290;-70
2022/09/23 11:06:17;;;;;;;;;2.00;2.00;;;;;26.68;40.43;100414.66;5078997;28;45490;-71
2022/09/23 11:08:58;;;;;;;;;2.00;2.00;;;;;26.51;40.82;100393.81;5079416;27;45307;-70
2022/09/23 11:11:38;;;;;;;;;3.00;3.00;;;;;26.54;41.81;100406.22;5079633;28;45272;-70
2022/09/23 11:14:23;;;;;;;;;3.33;3.33;;;;;26.37;42.87;100405.06;5079026;28;45242;-72
2022/09/23 11:17:01;;;;;;;;;4.00;3.00;;;;;26.24;43.67;100390.38;5079231;28;45277;-70
2022/09/23 11:19:36;;;;;;;;;4.33;4.00;;;;;26.09;44.50;100396.31;5079398;28;45662;-71
2022/09/23 11:22:12;;;;;;;;;3.33;3.00;;;;;25.97;44.86;100401.19;5078740;28;45523;-70
2022/09/23 11:24:57;;;;;;;;;3.00;3.00;;;;;25.90;45.44;100396.97;5077755;28;45498;-73
2022/09/23 11:27:28;;;;;;;;;2.00;2.00;;;;;25.89;45.45;100397.03;5079846;28;45492;-70
2022/09/23 11:30:18;;;;;;;;;3.00;2.00;;;;;25.89;45.41;100403.25;5079574;28;45244;-70
2022/09/23 11:33:16;;;;;;;;;2.00;2.00;;;;;25.94;45.42;100403.09;5077471;28;45705;-70
2022/09/23 11:35:49;;;;;;;;;2.00;2.00;;;;;26.08;45.56;100386.53;5078543;28;45499;-70
2022/09/23 11:38:14;;;;;;;;;5.00;4.00;;;;;26.30;45.27;100402.66;5079037;28;45293;-70
2022/09/23 11:40:44;;;;;;;;;4.00;4.00;;;;;26.39;45.16;100402.34;5079062;28;45403;-72
2022/09/23 11:43:25;;;;;;;;;4.00;3.00;;;;;26.36;45.18;100391.72;5078637;28;45478;-70
2022/09/23 11:46:30;;;;;;;;;4.00;3.00;;;;;26.24;45.08;100368.97;5078443;28;45537;-70
2022/09/23 11:49:45;;;;;;;;;1.67;1.00;;;;;26.21;45.14;100386.97;5077672;28;45519;-70
2022/09/23 11:52:28;;;;;;;;;5.00;4.33;;;;;26.23;45.29;100402.03;5066418;27;45678;-70
2022/09/23 11:55:12;;;;;;;;;4.00;4.00;;;;;26.19;45.83;100397.72;5078622;28;45615;-70
2022/09/23 11:57:46;;;;;;;;;5.00;5.00;;;;;26.13;45.76;100395.28;5078262;28;45392;-70
2022/09/23 12:00:23;;;;;;;;;6.67;6.00;;;;;26.12;46.30;100396.19;5078323;28;45441;-70